Time;durP1;ratioP1;P1;durP2;ratioP2;P2;SDS_P1;SDS_P2;PMS_P1;PMS_P2;Temp;Humidity;BMP_temperature;BMP_pressure;BME280_temperature;BME280_humidity;BME280_pressure;Samples;Min_cycle;Max_cycle;Signal;HPM_P1;HPM_P2
2022/03/27 00:01:18;;;;;;;14.68;7.32;;;9.30;99.90;;;;;;5015977;28;20137;-88
2022/03/27 00:03:43;;;;;;;12.35;7.13;;;9.20;99.90;;;;;;5032434;28;20041;-88
2022/03/27 00:06:09;;;;;;;13.30;7.32;;;9.20;99.90;;;;;;5032935;28;20597;-88
2022/03/27 00:08:35;;;;;;;10.65;6.57;;;9.30;99.90;;;;;;5032622;28;20414;-88
2022/03/27 00:13:45;;;;;;;14.55;9.00;;;9.10;99.90;;;;;;5032793;28;20046;-87
2022/03/27 00:16:10;;;;;;;12.00;7.65;;;9.10;99.90;;;;;;5032853;28;20041;-88
2022/03/27 00:18:36;;;;;;;11.70;7.22;;;9.00;99.90;;;;;;5032737;28;20593;-88
2022/03/27 00:21:04;;;;;;;12.75;8.23;;;9.00;99.90;;;;;;5032235;28;20033;-88
2022/03/27 00:23:29;;;;;;;12.90;8.20;;;9.00;99.90;;;;;;5032304;28;20045;-88
2022/03/27 00:25:55;;;;;;;12.52;8.70;;;9.00;99.90;;;;;;5032419;28;20414;-88
2022/03/27 00:28:21;;;;;;;12.55;8.18;;;9.00;99.90;;;;;;5032138;28;20434;-87
2022/03/27 00:30:46;;;;;;;13.55;8.27;;;8.90;99.90;;;;;;5031834;28;20128;-87
2022/03/27 00:33:12;;;;;;;12.07;7.18;;;8.90;99.90;;;;;;5015991;28;20041;-88
2022/03/27 00:35:38;;;;;;;13.50;8.45;;;8.80;99.90;;;;;;5032364;28;20045;-87
2022/03/27 00:38:04;;;;;;;13.93;8.02;;;8.80;99.90;;;;;;5032560;28;20037;-87
2022/03/27 00:40:30;;;;;;;13.10;8.10;;;8.80;99.90;;;;;;5033242;28;20465;-86
2022/03/27 00:42:55;;;;;;;14.07;8.25;;;8.70;99.90;;;;;;5030898;28;20064;-87
2022/03/27 00:45:21;;;;;;;13.38;8.52;;;8.70;99.90;;;;;;5031408;28;20048;-87
2022/03/27 00:47:47;;;;;;;12.57;8.63;;;8.70;99.90;;;;;;5031588;28;20094;-87
2022/03/27 00:50:12;;;;;;;12.75;8.20;;;8.70;99.90;;;;;;5031152;28;20041;-87
2022/03/27 00:52:38;;;;;;;13.20;8.38;;;8.70;99.90;;;;;;5031585;28;20034;-86
2022/03/27 00:55:04;;;;;;;12.65;8.00;;;8.60;99.90;;;;;;5015204;28;20530;-87
2022/03/27 00:57:30;;;;;;;13.38;9.18;;;8.60;99.90;;;;;;5015563;28;20162;-87
2022/03/27 00:59:56;;;;;;;11.93;7.70;;;8.60;99.90;;;;;;5031680;28;20045;-87
2022/03/27 01:02:23;;;;;;;12.02;7.78;;;8.50;99.90;;;;;;5031747;28;20116;-87
2022/03/27 01:04:54;;;;;;;13.70;8.55;;;8.50;99.90;;;;;;5051379;28;20089;-86
2022/03/27 01:07:19;;;;;;;14.38;9.40;;;8.50;99.90;;;;;;5035815;28;20395;-88
2022/03/27 01:09:48;;;;;;;12.13;7.90;;;8.50;99.90;;;;;;5033117;28;20029;-88
2022/03/27 01:12:23;;;;;;;14.88;9.82;;;8.50;99.90;;;;;;5033319;28;20038;-88
2022/03/27 01:14:54;;;;;;;14.73;8.77;;;8.40;99.90;;;;;;5033108;28;20046;-88
2022/03/27 01:17:25;;;;;;;13.20;8.25;;;8.40;99.90;;;;;;5032637;28;20041;-87
2022/03/27 01:19:54;;;;;;;13.98;8.55;;;8.40;99.90;;;;;;5032489;28;20045;-88
2022/03/27 01:22:20;;;;;;;13.98;8.88;;;8.30;99.90;;;;;;5015645;28;20041;-87
2022/03/27 01:24:47;;;;;;;13.77;9.43;;;8.30;99.90;;;;;;5014808;28;20083;-88
2022/03/27 01:27:13;;;;;;;14.38;9.60;;;8.30;99.90;;;;;;5031683;28;20060;-87
2022/03/27 01:29:39;;;;;;;15.65;10.43;;;8.20;99.90;;;;;;5031254;28;20034;-88
2022/03/27 01:32:07;;;;;;;15.15;9.88;;;8.10;99.90;;;;;;5030909;28;20676;-87
2022/03/27 01:34:33;;;;;;;16.30;10.27;;;8.10;99.90;;;;;;5014078;28;20076;-87
2022/03/27 01:37:09;;;;;;;14.90;9.35;;;8.10;99.90;;;;;;5030903;28;20046;-87
2022/03/27 01:39:35;;;;;;;16.63;9.43;;;8.10;99.90;;;;;;5030988;28;20569;-87
2022/03/27 01:42:00;;;;;;;16.75;9.90;;;8.00;99.90;;;;;;5013537;28;20124;-87
2022/03/27 01:44:26;;;;;;;16.85;10.55;;;8.00;99.90;;;;;;5030816;28;20112;-87
2022/03/27 01:46:52;;;;;;;16.65;10.90;;;7.90;99.90;;;;;;5014856;28;20038;-87
2022/03/27 01:49:19;;;;;;;18.40;10.55;;;7.90;99.90;;;;;;5030713;28;20069;-87
2022/03/27 01:51:45;;;;;;;18.02;11.43;;;7.90;99.90;;;;;;5030239;28;20103;-87
2022/03/27 01:54:12;;;;;;;19.67;11.65;;;7.80;99.90;;;;;;5013238;28;20041;-87
2022/03/27 01:56:38;;;;;;;17.77;11.13;;;7.80;99.90;;;;;;5030230;28;20041;-87
2022/03/27 01:59:04;;;;;;;18.85;11.43;;;7.70;99.90;;;;;;5030048;28;20037;-87
2022/03/27 02:01:31;;;;;;;18.48;11.40;;;7.70;99.90;;;;;;5030145;28;20045;-88
2022/03/27 02:03:57;;;;;;;20.52;11.13;;;7.60;99.90;;;;;;5030996;28;20111;-87
2022/03/27 02:06:23;;;;;;;17.27;10.95;;;7.60;99.90;;;;;;5030785;28;20510;-87
2022/03/27 02:08:51;;;;;;;18.15;11.60;;;7.40;99.90;;;;;;5030599;28;20045;-87
2022/03/27 02:11:17;;;;;;;20.63;12.60;;;7.30;99.90;;;;;;5013710;28;20434;-87
2022/03/27 02:13:42;;;;;;;19.00;11.18;;;7.30;99.90;;;;;;5030029;28;20034;-87
2022/03/27 02:16:08;;;;;;;20.27;11.30;;;7.20;99.90;;;;;;5013760;28;20044;-87
2022/03/27 02:18:34;;;;;;;20.58;12.30;;;7.20;99.90;;;;;;5030096;28;20099;-87
2022/03/27 02:21:00;;;;;;;21.90;12.00;;;7.20;99.90;;;;;;5029915;28;20049;-87
2022/03/27 02:23:27;;;;;;;20.98;11.98;;;7.10;99.90;;;;;;5030286;28;20048;-87
2022/03/27 02:25:54;;;;;;;20.25;10.75;;;7.10;99.90;;;;;;5030526;28;20092;-87
2022/03/27 02:28:19;;;;;;;21.30;12.45;;;7.00;99.90;;;;;;5030554;28;20033;-87
2022/03/27 02:30:46;;;;;;;22.25;11.93;;;7.00;99.90;;;;;;5029970;28;20518;-87
2022/03/27 02:33:12;;;;;;;18.80;11.55;;;6.90;99.90;;;;;;5030266;28;20033;-87
2022/03/27 02:35:38;;;;;;;19.23;10.80;;;6.90;99.90;;;;;;5029694;28;20034;-87
2022/03/27 02:38:05;;;;;;;18.70;11.48;;;6.80;99.90;;;;;;5013427;28;20075;-87
2022/03/27 02:40:38;;;;;;;19.73;11.57;;;6.70;99.90;;;;;;5029774;28;20080;-87
2022/03/27 02:43:04;;;;;;;21.50;11.32;;;6.70;99.90;;;;;;5028950;28;20033;-87
2022/03/27 02:45:30;;;;;;;20.25;12.07;;;6.60;99.90;;;;;;5029942;28;20625;-87
2022/03/27 02:47:56;;;;;;;20.00;12.02;;;6.60;99.90;;;;;;5030120;28;20042;-87
2022/03/27 02:50:22;;;;;;;21.80;12.75;;;6.50;99.90;;;;;;5029908;28;20176;-87
2022/03/27 02:52:47;;;;;;;19.50;11.75;;;6.50;99.90;;;;;;5029917;28;20044;-87
2022/03/27 02:55:13;;;;;;;22.23;12.73;;;6.50;99.90;;;;;;5013575;28;20041;-87
2022/03/27 02:57:39;;;;;;;19.80;12.02;;;6.50;99.90;;;;;;5029443;28;20044;-87
2022/03/27 03:00:07;;;;;;;20.70;12.15;;;6.40;99.90;;;;;;5030817;28;20041;-87
2022/03/27 03:02:33;;;;;;;21.20;12.68;;;6.40;99.90;;;;;;5028918;28;20045;-87
2022/03/27 03:04:59;;;;;;;20.75;11.85;;;6.30;99.90;;;;;;5029292;28;20052;-87
2022/03/27 03:07:25;;;;;;;23.33;12.45;;;6.20;99.90;;;;;;5029426;28;20120;-87
2022/03/27 03:09:51;;;;;;;18.85;10.55;;;6.20;99.90;;;;;;5031787;28;20037;-87
2022/03/27 03:12:17;;;;;;;20.55;11.93;;;6.20;99.90;;;;;;5017112;28;20033;-87
2022/03/27 03:14:43;;;;;;;20.50;12.27;;;6.10;99.90;;;;;;5033769;28;20099;-87
2022/03/27 03:17:09;;;;;;;20.67;10.95;;;6.10;99.90;;;;;;5033692;28;20034;-87
2022/03/27 03:19:35;;;;;;;23.60;11.43;;;6.10;99.90;;;;;;5016382;28;20561;-87
2022/03/27 03:22:00;;;;;;;21.83;12.38;;;6.10;99.90;;;;;;5016611;28;20132;-87
2022/03/27 03:24:27;;;;;;;21.33;12.02;;;6.10;99.90;;;;;;5017082;28;20406;-87
2022/03/27 03:26:54;;;;;;;20.98;12.25;;;6.10;99.90;;;;;;5033628;28;20057;-87
2022/03/27 03:29:21;;;;;;;21.42;11.13;;;6.10;99.90;;;;;;5032909;28;20499;-87
2022/03/27 03:31:46;;;;;;;22.10;11.15;;;6.10;99.90;;;;;;5016195;28;20048;-87
2022/03/27 03:34:12;;;;;;;21.42;10.52;;;6.10;99.90;;;;;;5033630;28;20045;-87
2022/03/27 03:36:38;;;;;;;21.63;11.52;;;6.10;99.90;;;;;;5016908;28;20041;-87
2022/03/27 03:39:04;;;;;;;22.77;10.40;;;6.10;99.90;;;;;;5033160;28;20080;-87
2022/03/27 03:41:29;;;;;;;21.85;11.88;;;6.10;99.90;;;;;;5032605;28;20453;-87
2022/03/27 03:43:55;;;;;;;19.35;10.55;;;6.10;99.90;;;;;;5015832;28;20029;-87
2022/03/27 03:46:21;;;;;;;18.13;10.30;;;6.10;99.90;;;;;;5033257;28;20080;-87
2022/03/27 03:48:46;;;;;;;19.50;11.48;;;6.00;99.90;;;;;;5033072;28;20033;-87
2022/03/27 03:51:12;;;;;;;19.00;10.98;;;5.90;99.90;;;;;;5032623;28;20030;-86
2022/03/27 03:53:38;;;;;;;14.70;8.75;;;5.90;99.90;;;;;;5033171;28;20137;-87
2022/03/27 03:56:05;;;;;;;17.35;9.50;;;5.90;99.90;;;;;;5032960;28;20041;-87
2022/03/27 03:58:31;;;;;;;20.23;10.27;;;5.90;99.90;;;;;;5032737;28;20045;-87
2022/03/27 04:00:56;;;;;;;17.83;9.15;;;5.80;99.90;;;;;;5032729;28;20120;-87
2022/03/27 04:03:22;;;;;;;18.98;9.40;;;5.80;99.90;;;;;;5032516;28;20547;-87
2022/03/27 04:05:47;;;;;;;15.82;8.88;;;5.80;99.90;;;;;;5032649;28;20041;-87
2022/03/27 04:08:14;;;;;;;17.23;9.45;;;5.80;99.90;;;;;;5033208;28;20091;-87
2022/03/27 04:10:41;;;;;;;19.55;9.98;;;5.80;99.90;;;;;;5015984;28;20041;-87
2022/03/27 04:13:07;;;;;;;16.60;10.07;;;5.80;99.90;;;;;;5032886;28;20041;-87
2022/03/27 04:15:33;;;;;;;16.52;8.80;;;5.80;99.90;;;;;;5032394;28;20045;-87
2022/03/27 04:18:00;;;;;;;19.40;9.90;;;5.80;99.90;;;;;;5032624;28;20044;-87
2022/03/27 04:20:26;;;;;;;18.55;9.80;;;5.80;99.90;;;;;;5031760;28;20410;-87
2022/03/27 04:22:51;;;;;;;19.17;9.90;;;5.70;99.90;;;;;;5032180;28;20566;-87
2022/03/27 04:25:17;;;;;;;16.52;8.68;;;5.70;99.90;;;;;;5031980;28;20038;-87
2022/03/27 04:27:43;;;;;;;17.15;10.32;;;5.70;99.90;;;;;;5031729;28;20129;-87
2022/03/27 04:30:10;;;;;;;16.02;9.35;;;5.70;99.90;;;;;;5031744;28;20112;-87
2022/03/27 04:32:37;;;;;;;17.67;9.18;;;5.70;99.90;;;;;;5015856;28;20455;-87
2022/03/27 04:35:04;;;;;;;16.15;8.20;;;5.70;99.90;;;;;;5016267;28;20124;-87
2022/03/27 04:37:29;;;;;;;15.25;8.15;;;5.60;99.90;;;;;;5032011;28;20499;-87
2022/03/27 04:40:02;;;;;;;17.13;9.05;;;5.60;99.90;;;;;;5031944;28;20067;-87
2022/03/27 04:42:28;;;;;;;14.75;8.13;;;5.60;99.90;;;;;;5014582;28;20037;-86
2022/03/27 04:44:53;;;;;;;16.80;9.27;;;5.60;99.90;;;;;;5031792;28;20036;-87
2022/03/27 04:47:19;;;;;;;18.65;8.52;;;5.60;99.90;;;;;;5031846;28;20116;-87
2022/03/27 04:49:45;;;;;;;15.43;7.75;;;5.60;99.90;;;;;;5031291;28;20033;-87
2022/03/27 04:52:11;;;;;;;16.40;8.05;;;5.60;99.90;;;;;;5015208;28;20033;-87
2022/03/27 04:54:37;;;;;;;18.40;7.97;;;5.60;99.90;;;;;;5031942;28;20045;-87
2022/03/27 04:57:03;;;;;;;17.90;7.53;;;5.60;99.90;;;;;;5031735;28;20043;-87
2022/03/27 04:59:29;;;;;;;15.90;7.55;;;5.50;99.90;;;;;;5031818;28;20059;-87
2022/03/27 05:01:56;;;;;;;16.02;7.03;;;5.50;99.90;;;;;;5015519;28;20045;-87
2022/03/27 05:04:21;;;;;;;15.18;6.90;;;5.50;99.90;;;;;;5031863;28;20136;-87
2022/03/27 05:06:47;;;;;;;15.07;6.25;;;5.40;99.90;;;;;;5031241;28;20541;-87
2022/03/27 05:09:13;;;;;;;19.05;7.50;;;5.40;99.90;;;;;;5029496;28;20481;-87
2022/03/27 05:11:38;;;;;;;11.73;6.50;;;5.40;99.90;;;;;;5030484;28;20042;-86
2022/03/27 05:14:04;;;;;;;13.98;6.50;;;5.40;99.90;;;;;;5030680;28;20129;-87
2022/03/27 05:16:30;;;;;;;18.63;6.97;;;5.40;99.90;;;;;;5030886;28;20037;-86
2022/03/27 05:18:56;;;;;;;16.80;6.15;;;5.40;99.90;;;;;;5014059;28;20051;-87
2022/03/27 05:21:23;;;;;;;21.60;7.68;;;5.40;99.90;;;;;;5014469;28;20124;-87
2022/03/27 05:23:48;;;;;;;17.15;7.00;;;5.40;99.90;;;;;;5030869;28;20052;-87
2022/03/27 05:26:14;;;;;;;13.13;6.25;;;5.40;99.90;;;;;;5030565;28;20045;-87
2022/03/27 05:28:40;;;;;;;16.65;6.85;;;5.40;99.90;;;;;;5030673;28;20045;-87
2022/03/27 05:31:08;;;;;;;15.30;7.00;;;5.40;99.90;;;;;;5029715;28;20642;-87
2022/03/27 05:33:36;;;;;;;19.10;7.07;;;5.40;99.90;;;;;;5030941;28;20041;-87
2022/03/27 05:36:03;;;;;;;16.48;5.88;;;5.40;99.90;;;;;;5030249;28;20076;-87
2022/03/27 05:38:29;;;;;;;14.27;6.05;;;5.40;99.90;;;;;;5014055;28;20084;-87
2022/03/27 05:40:54;;;;;;;19.23;7.30;;;5.40;99.90;;;;;;5030224;28;20034;-87
2022/03/27 05:43:20;;;;;;;23.23;7.72;;;5.40;99.90;;;;;;5029821;28;20406;-86
2022/03/27 05:45:46;;;;;;;17.05;6.53;;;5.40;99.90;;;;;;5030382;28;20641;-86
2022/03/27 05:48:12;;;;;;;20.70;6.22;;;5.50;99.90;;;;;;5030222;28;20084;-86
2022/03/27 05:50:38;;;;;;;15.68;6.60;;;5.50;99.90;;;;;;5013670;28;20089;-86
2022/03/27 05:53:04;;;;;;;22.55;6.30;;;5.60;99.90;;;;;;5030180;28;20045;-87
2022/03/27 05:55:29;;;;;;;17.17;6.10;;;5.70;99.90;;;;;;5030311;28;20045;-87
2022/03/27 05:57:55;;;;;;;23.95;7.20;;;5.70;99.90;;;;;;5014078;28;20051;-86
2022/03/27 06:00:21;;;;;;;25.45;7.10;;;5.80;99.90;;;;;;5030086;28;20056;-86
2022/03/27 06:02:48;;;;;;;23.65;6.88;;;5.80;99.90;;;;;;5030410;28;20052;-86
2022/03/27 06:05:13;;;;;;;23.98;6.55;;;5.90;99.90;;;;;;5030308;28;20044;-86
2022/03/27 06:07:44;;;;;;;21.05;6.93;;;6.00;99.90;;;;;;5030203;28;20507;-87
2022/03/27 06:10:10;;;;;;;25.42;7.40;;;6.10;99.90;;;;;;5029952;28;20380;-87
2022/03/27 06:12:36;;;;;;;23.60;5.93;;;6.10;99.90;;;;;;5030471;28;20128;-87
2022/03/27 06:15:01;;;;;;;26.77;7.88;;;6.20;99.90;;;;;;5029896;28;20709;-87
2022/03/27 06:17:27;;;;;;;27.00;6.95;;;6.30;99.90;;;;;;5030033;28;20076;-87
2022/03/27 06:19:52;;;;;;;25.40;6.35;;;6.40;99.90;;;;;;5029878;28;20053;-86
2022/03/27 06:22:18;;;;;;;24.30;7.15;;;6.40;99.90;;;;;;5029253;28;20041;-86
2022/03/27 06:24:44;;;;;;;23.83;6.75;;;6.50;99.90;;;;;;5013516;28;20037;-87
2022/03/27 06:27:09;;;;;;;26.48;6.40;;;6.60;99.90;;;;;;5029786;28;20045;-87
2022/03/27 06:29:35;;;;;;;29.10;7.18;;;6.70;99.90;;;;;;5013026;28;20053;-87
2022/03/27 06:32:00;;;;;;;26.38;6.85;;;6.70;99.90;;;;;;5029804;28;20046;-87
2022/03/27 06:34:26;;;;;;;30.88;7.20;;;6.80;99.90;;;;;;5013487;28;20037;-86
2022/03/27 06:36:52;;;;;;;28.05;6.45;;;6.80;99.90;;;;;;5029844;28;20100;-86
2022/03/27 06:39:17;;;;;;;32.45;7.82;;;6.90;99.90;;;;;;5029265;28;20049;-87
2022/03/27 06:41:43;;;;;;;31.83;7.03;;;6.90;99.90;;;;;;5027773;28;20049;-88
2022/03/27 06:44:09;;;;;;;30.38;7.13;;;7.00;99.90;;;;;;5029701;28;20041;-87
2022/03/27 06:46:34;;;;;;;28.25;8.00;;;7.00;99.90;;;;;;5029814;28;20046;-87
2022/03/27 06:49:00;;;;;;;33.42;7.50;;;7.00;99.90;;;;;;5013567;28;20407;-87
2022/03/27 06:51:25;;;;;;;25.05;7.68;;;7.10;99.90;;;;;;5029071;28;20121;-87
2022/03/27 06:53:51;;;;;;;31.13;8.27;;;7.10;99.90;;;;;;5029421;28;20044;-87
2022/03/27 06:56:17;;;;;;;36.13;9.25;;;7.20;99.90;;;;;;5029820;28;20037;-87
2022/03/27 06:58:42;;;;;;;24.08;7.25;;;7.20;99.90;;;;;;5012817;28;20072;-87
2022/03/27 07:03:53;;;;;;;29.08;8.30;;;7.40;99.90;;;;;;5028802;28;20403;-87
2022/03/27 07:06:18;;;;;;;30.80;9.02;;;7.50;99.90;;;;;;5029090;28;20131;-87
2022/03/27 07:08:44;;;;;;;33.13;8.82;;;7.50;99.90;;;;;;5028855;28;20079;-87
2022/03/27 07:11:10;;;;;;;33.47;8.70;;;7.60;99.90;;;;;;5029373;28;20045;-87
2022/03/27 07:13:35;;;;;;;30.88;8.23;;;7.70;99.90;;;;;;5029176;28;20495;-87
2022/03/27 07:16:01;;;;;;;27.05;7.47;;;7.70;99.90;;;;;;5029153;28;20049;-87
2022/03/27 07:18:29;;;;;;;38.08;9.02;;;7.70;99.90;;;;;;5028753;28;20133;-87
2022/03/27 07:20:55;;;;;;;31.70;9.18;;;7.80;99.90;;;;;;5012053;28;20573;-87
2022/03/27 07:23:21;;;;;;;32.28;8.73;;;7.90;99.90;;;;;;5029086;28;20131;-87
2022/03/27 07:25:50;;;;;;;31.60;9.10;;;7.90;99.90;;;;;;5013148;28;20036;-87
2022/03/27 07:28:16;;;;;;;31.73;8.63;;;8.00;99.90;;;;;;5029602;28;20053;-87
2022/03/27 07:30:43;;;;;;;34.25;8.65;;;8.00;99.90;;;;;;5029511;28;20033;-88
2022/03/27 07:33:09;;;;;;;30.98;8.65;;;8.00;99.90;;;;;;5028513;28;20038;-88
2022/03/27 07:35:34;;;;;;;31.73;9.32;;;8.10;99.90;;;;;;5029072;28;20056;-88
2022/03/27 07:38:01;;;;;;;31.42;10.15;;;8.20;99.90;;;;;;5029705;28;20091;-87
2022/03/27 07:40:28;;;;;;;28.95;10.45;;;8.20;99.90;;;;;;5029061;28;20099;-88
2022/03/27 07:42:54;;;;;;;29.00;11.25;;;8.30;99.90;;;;;;5028113;28;20049;-88
2022/03/27 07:45:26;;;;;;;31.45;10.45;;;8.30;99.90;;;;;;5028890;28;20041;-88
2022/03/27 07:47:53;;;;;;;31.00;10.20;;;8.40;99.90;;;;;;5029396;28;20037;-87
2022/03/27 07:50:21;;;;;;;29.45;9.82;;;8.40;99.90;;;;;;5028416;28;20429;-88
2022/03/27 07:52:47;;;;;;;34.60;12.38;;;8.40;99.90;;;;;;5029158;28;20034;-88
2022/03/27 07:55:15;;;;;;;32.88;10.98;;;8.50;99.90;;;;;;5029671;28;20038;-88
2022/03/27 07:57:42;;;;;;;32.40;11.63;;;8.50;99.90;;;;;;5032860;28;20057;-88
2022/03/27 08:00:10;;;;;;;27.70;11.32;;;8.50;99.90;;;;;;5032666;28;20046;-87
2022/03/27 08:02:37;;;;;;;31.20;12.50;;;8.60;99.90;;;;;;5014641;28;20107;-87
2022/03/27 08:05:04;;;;;;;38.25;12.73;;;8.70;99.90;;;;;;5032922;28;20184;-87
2022/03/27 08:07:30;;;;;;;31.35;11.77;;;8.70;99.90;;;;;;5016219;28;20491;-87
2022/03/27 08:09:55;;;;;;;30.50;12.43;;;8.80;99.90;;;;;;5032233;28;20046;-88
2022/03/27 08:12:21;;;;;;;35.28;11.35;;;8.80;99.90;;;;;;5032594;28;20042;-87
2022/03/27 08:14:48;;;;;;;34.17;11.68;;;8.90;99.90;;;;;;5032298;28;20467;-88
2022/03/27 08:17:18;;;;;;;36.08;12.18;;;8.90;99.90;;;;;;5032756;28;20116;-88
2022/03/27 08:19:45;;;;;;;32.17;10.85;;;9.10;99.90;;;;;;5029748;28;20064;-88
2022/03/27 08:22:11;;;;;;;33.10;10.77;;;9.10;99.90;;;;;;5016031;28;20493;-88
2022/03/27 08:24:37;;;;;;;35.28;13.30;;;9.20;99.90;;;;;;5032541;28;20045;-88
2022/03/27 08:27:04;;;;;;;33.95;11.43;;;9.30;99.90;;;;;;5032491;28;20442;-88
2022/03/27 08:29:41;;;;;;;37.50;11.60;;;9.40;99.90;;;;;;5031604;28;20056;-88
2022/03/27 08:32:12;;;;;;;35.80;10.85;;;9.40;99.90;;;;;;5031494;28;20038;-88
2022/03/27 08:34:40;;;;;;;32.40;11.70;;;9.40;99.90;;;;;;5032367;28;20045;-87
2022/03/27 08:37:08;;;;;;;26.95;11.10;;;9.40;99.90;;;;;;5015614;28;20124;-87
2022/03/27 08:39:35;;;;;;;34.40;12.65;;;9.40;99.90;;;;;;5030964;28;20148;-87
2022/03/27 08:42:01;;;;;;;31.35;10.77;;;9.50;99.90;;;;;;5030507;28;20049;-88
2022/03/27 08:44:28;;;;;;;32.55;12.25;;;9.60;99.90;;;;;;5032058;28;20041;-87
2022/03/27 08:46:55;;;;;;;35.33;13.38;;;9.60;99.90;;;;;;5035465;28;20056;-87
2022/03/27 08:49:27;;;;;;;36.30;13.63;;;9.60;99.90;;;;;;5044671;28;20116;-87
2022/03/27 08:52:02;;;;;;;35.20;14.45;;;9.70;99.90;;;;;;5033804;28;20045;-88
2022/03/27 08:54:40;;;;;;;35.50;15.23;;;9.80;99.90;;;;;;5033780;28;20034;-88
2022/03/27 08:57:51;;;;;;;37.72;15.70;;;10.00;99.90;;;;;;5033637;28;20132;-87
2022/03/27 09:00:22;;;;;;;36.30;14.95;;;10.20;99.90;;;;;;5032980;28;20088;-88
2022/03/27 09:02:47;;;;;;;40.08;15.57;;;10.30;99.90;;;;;;5032562;28;20045;-88
2022/03/27 09:05:14;;;;;;;39.00;15.18;;;10.50;99.90;;;;;;5031626;28;20037;-88
2022/03/27 09:07:39;;;;;;;37.30;13.05;;;10.60;99.90;;;;;;5031795;28;20078;-88
2022/03/27 09:10:09;;;;;;;36.05;12.57;;;10.80;99.90;;;;;;5031657;28;20081;-88
2022/03/27 09:12:35;;;;;;;32.28;11.05;;;10.90;99.90;;;;;;5031070;28;20042;-88
2022/03/27 09:15:02;;;;;;;33.08;10.15;;;11.00;99.90;;;;;;5030989;28;20037;-88
2022/03/27 09:17:28;;;;;;;31.73;10.70;;;11.20;99.90;;;;;;5030902;28;20052;-88
2022/03/27 09:19:53;;;;;;;35.78;11.32;;;11.20;99.90;;;;;;5029965;28;20034;-88
2022/03/27 09:22:22;;;;;;;28.73;9.98;;;11.30;99.90;;;;;;5030923;28;20597;-89
2022/03/27 09:24:57;;;;;;;27.77;9.32;;;11.40;99.90;;;;;;5014606;28;20037;-88
2022/03/27 09:27:36;;;;;;;27.83;8.68;;;11.60;99.90;;;;;;5014612;28;20558;-88
2022/03/27 09:30:08;;;;;;;29.67;8.35;;;11.70;99.90;;;;;;5014065;28;20076;-89
2022/03/27 09:32:40;;;;;;;32.80;9.98;;;11.90;99.90;;;;;;5030439;28;20041;-89
2022/03/27 09:35:10;;;;;;;28.02;8.55;;;12.00;99.90;;;;;;5031490;28;20072;-88
2022/03/27 09:37:45;;;;;;;30.13;9.18;;;12.10;99.90;;;;;;5030668;28;20041;-89
2022/03/27 09:40:12;;;;;;;31.73;8.65;;;12.30;99.90;;;;;;5030276;28;20056;-89
2022/03/27 09:42:40;;;;;;;30.13;8.48;;;12.40;99.90;;;;;;5028813;28;20053;-90
2022/03/27 09:45:12;;;;;;;32.47;9.15;;;12.50;99.90;;;;;;5030722;28;20639;-89
2022/03/27 09:47:39;;;;;;;27.40;7.53;;;12.60;99.80;;;;;;5030697;28;20507;-89
2022/03/27 09:50:05;;;;;;;28.83;8.73;;;12.60;99.90;;;;;;5030141;28;20048;-88
2022/03/27 09:52:33;;;;;;;30.20;8.88;;;12.70;99.60;;;;;;5029729;28;20180;-88
2022/03/27 09:55:07;;;;;;;31.27;8.50;;;12.90;99.40;;;;;;5030542;28;20049;-89
2022/03/27 09:57:38;;;;;;;28.85;7.55;;;13.10;99.00;;;;;;5030431;28;20051;-89
2022/03/27 10:00:19;;;;;;;31.42;8.10;;;13.20;98.20;;;;;;5030327;28;20388;-88
2022/03/27 10:02:49;;;;;;;27.98;8.07;;;13.30;97.20;;;;;;5030332;28;20048;-89
2022/03/27 10:05:16;;;;;;;26.60;8.82;;;13.40;97.30;;;;;;5030441;28;20522;-89
2022/03/27 10:07:54;;;;;;;29.95;7.95;;;13.50;97.00;;;;;;5029943;28;20045;-89
2022/03/27 10:10:25;;;;;;;36.72;8.93;;;13.70;96.90;;;;;;5030005;28;20041;-89
2022/03/27 10:12:53;;;;;;;27.52;8.25;;;13.80;96.50;;;;;;5029805;28;20041;-88
2022/03/27 10:15:24;;;;;;;31.85;8.63;;;14.00;96.10;;;;;;5013500;28;20052;-88
2022/03/27 10:18:00;;;;;;;31.55;8.80;;;14.10;95.90;;;;;;5029682;28;20041;-88
2022/03/27 10:20:33;;;;;;;27.42;9.07;;;14.20;94.70;;;;;;5029522;28;20151;-89
2022/03/27 10:23:09;;;;;;;27.92;8.25;;;14.30;94.70;;;;;;5029883;28;20176;-89
2022/03/27 10:25:41;;;;;;;36.30;9.77;;;14.40;93.80;;;;;;5030031;28;20045;-88
2022/03/27 10:28:07;;;;;;;29.13;9.07;;;14.50;93.40;;;;;;5030344;28;20053;-88
2022/03/27 10:30:34;;;;;;;30.23;8.85;;;14.60;93.50;;;;;;5029323;28;20503;-89
2022/03/27 10:33:01;;;;;;;28.15;8.85;;;14.70;92.30;;;;;;5029926;28;20041;-88
2022/03/27 10:35:58;;;;;;;29.90;8.40;;;14.90;92.20;;;;;;5029259;28;20462;-89
2022/03/27 10:38:33;;;;;;;27.05;7.95;;;15.00;91.30;;;;;;5027722;28;20034;-89
2022/03/27 10:41:21;;;;;;;29.05;8.88;;;15.20;90.30;;;;;;5011650;28;20041;-89
2022/03/27 10:44:11;;;;;;;30.70;9.27;;;15.20;90.00;;;;;;5029899;28;20069;-89
2022/03/27 10:46:37;;;;;;;29.25;8.02;;;15.30;90.20;;;;;;5013294;28;20140;-88
2022/03/27 10:49:17;;;;;;;24.83;8.45;;;15.50;88.90;;;;;;5029823;28;20132;-88
2022/03/27 10:51:47;;;;;;;27.83;8.23;;;15.60;87.90;;;;;;5029571;28;20037;-89
2022/03/27 10:54:18;;;;;;;29.85;7.72;;;15.60;84.70;;;;;;5029643;28;20124;-90
2022/03/27 10:56:45;;;;;;;26.20;7.68;;;15.70;84.10;;;;;;5030271;28;20442;-89
2022/03/27 10:59:18;;;;;;;28.42;7.55;;;15.80;82.70;;;;;;5029265;28;20088;-89
2022/03/27 11:01:52;;;;;;;29.52;7.47;;;16.00;81.90;;;;;;5027132;28;20034;-89
2022/03/27 11:04:25;;;;;;;22.75;6.82;;;16.10;81.30;;;;;;5028732;28;20049;-89
2022/03/27 11:07:16;;;;;;;25.42;7.70;;;16.30;81.60;;;;;;5009600;28;20056;-89
2022/03/27 11:09:44;;;;;;;29.00;8.93;;;16.50;81.90;;;;;;5027908;28;20502;-89
2022/03/27 11:12:22;;;;;;;26.38;7.60;;;16.70;78.90;;;;;;5029751;28;20050;-88
2022/03/27 11:15:00;;;;;;;23.45;7.00;;;16.80;75.20;;;;;;5030070;28;20494;-90
2022/03/27 11:17:30;;;;;;;25.30;7.20;;;16.90;74.30;;;;;;5013175;28;20485;-89
2022/03/27 11:19:56;;;;;;;25.38;7.63;;;17.10;72.60;;;;;;5029579;28;20049;-89
2022/03/27 11:22:45;;;;;;;23.50;6.97;;;17.20;71.30;;;;;;5029236;28;20042;-89
2022/03/27 11:25:28;;;;;;;24.45;7.68;;;17.20;69.60;;;;;;5040897;28;20044;-90
2022/03/27 11:28:03;;;;;;;24.92;7.28;;;17.30;68.80;;;;;;5048937;28;20051;-89
2022/03/27 11:30:30;;;;;;;28.90;8.52;;;17.40;68.20;;;;;;5033397;28;20037;-90
2022/03/27 11:33:15;;;;;;;24.30;7.53;;;17.50;67.60;;;;;;5053247;28;20120;-89
2022/03/27 11:36:09;;;;;;;23.35;6.90;;;17.70;69.80;;;;;;5053385;28;20032;-89
2022/03/27 11:38:54;;;;;;;21.42;7.10;;;17.90;68.70;;;;;;5053525;28;20097;-90
2022/03/27 11:41:30;;;;;;;17.92;5.85;;;18.00;66.00;;;;;;5052732;28;20553;-90
2022/03/27 11:44:16;;;;;;;20.92;6.30;;;18.10;63.40;;;;;;5032178;28;20041;-89
2022/03/27 11:46:50;;;;;;;20.60;7.53;;;18.30;62.90;;;;;;5032105;28;20537;-89
2022/03/27 11:49:17;;;;;;;21.95;7.03;;;18.50;63.80;;;;;;5032817;28;20060;-90
2022/03/27 11:51:43;;;;;;;23.15;7.22;;;18.50;61.80;;;;;;5031842;28;20053;-90
2022/03/27 11:54:20;;;;;;;25.65;8.20;;;18.60;61.70;;;;;;5014704;28;20037;-89
2022/03/27 11:56:56;;;;;;;23.08;7.40;;;18.70;61.90;;;;;;5031765;28;20577;-90
2022/03/27 11:59:26;;;;;;;22.55;7.30;;;18.80;61.20;;;;;;5032873;28;20045;-90
2022/03/27 12:01:59;;;;;;;23.73;7.25;;;19.00;60.50;;;;;;5031977;28;20510;-90
2022/03/27 12:04:26;;;;;;;22.90;7.93;;;19.10;60.00;;;;;;5033497;28;20112;-90
2022/03/27 12:06:56;;;;;;;26.20;8.82;;;19.30;60.60;;;;;;5032070;28;20656;-90
2022/03/27 12:09:29;;;;;;;21.98;7.10;;;19.50;60.20;;;;;;5015152;28;20502;-90
2022/03/27 12:12:11;;;;;;;22.05;7.28;;;19.70;58.80;;;;;;5032250;28;20033;-90
2022/03/27 12:14:54;;;;;;;20.37;6.50;;;19.80;56.20;;;;;;5032805;28;20045;-89
2022/03/27 12:17:21;;;;;;;24.23;9.13;;;19.90;54.10;;;;;;5016438;28;20037;-90
2022/03/27 12:20:08;;;;;;;23.25;7.72;;;20.10;56.40;;;;;;5032262;28;20303;-89
2022/03/27 12:22:42;;;;;;;21.92;6.43;;;20.30;56.60;;;;;;5016006;28;20045;-90
2022/03/27 12:25:37;;;;;;;22.08;6.32;;;20.40;55.10;;;;;;5032486;28;20264;-89
2022/03/27 12:30:50;;;;;;;17.85;5.70;;;20.70;54.30;;;;;;5031361;28;20081;-90
2022/03/27 12:33:23;;;;;;;19.73;6.72;;;20.70;53.70;;;;;;5032196;28;20080;-90
2022/03/27 12:36:13;;;;;;;17.88;5.75;;;20.90;53.50;;;;;;5032269;28;20045;-90
2022/03/27 12:38:39;;;;;;;23.42;7.10;;;21.10;52.90;;;;;;5032214;28;20041;-90
2022/03/27 12:41:08;;;;;;;20.10;6.32;;;21.30;52.60;;;;;;5031417;28;20092;-90
2022/03/27 12:43:33;;;;;;;21.13;6.35;;;21.40;52.00;;;;;;5030971;28;20049;-90
2022/03/27 12:46:16;;;;;;;21.83;7.65;;;21.50;51.50;;;;;;5015361;28;20038;-90
2022/03/27 12:48:42;;;;;;;;;;;21.70;50.90;;;;;;5031979;28;20045;-89
2022/03/27 12:51:12;;;;;;;21.08;6.65;;;21.90;51.00;;;;;;5030973;28;20370;-90
2022/03/27 12:53:37;;;;;;;23.55;9.20;;;22.00;50.80;;;;;;5031785;28;20034;-90
2022/03/27 12:56:09;;;;;;;18.80;5.53;;;22.10;50.10;;;;;;5031998;28;20513;-90